Coppock, Iowa
Current Conditions -  °F | °C
As of 8:15 PM on Friday 24 Oct 2014 (Local Time) from KAWG Reporting Station
Haze Haze  
Wind Chill: 57°   Ceiling: Unl
Heat Index: 57°   Visibility: 4mi
Dew Point: 57°   Wind: 5mph
Humidity: 100%   Direction: 180°S
Pressure: 29.95"   Gusts: NA
Location:  41.1406°N, 91.6635°W
Report Text: KAWG 250115Z AUTO 18004KT 4SM BR FEW023 14/14 A2995 RMK AO2
Loading
Personal Weather Stations






























Interactive Weather Map
Tropical Storm Tracking
New forecast layout! Learn more

10-Day Weather Forecast

Advertisements
Track Severe Weather on mobile